sensor_id;sensor_type;location;lat;lon;timestamp;P1;durP1;ratioP1;P2;durP2;ratioP2
64684;SDS011;51109;47.414;18.954;2023-04-23T00:01:06;21.13;;;9.10;;
64684;SDS011;51109;47.414;18.954;2023-04-23T00:03:33;13.30;;;8.68;;
64684;SDS011;51109;47.414;18.954;2023-04-23T00:06:02;13.82;;;8.55;;
64684;SDS011;51109;47.414;18.954;2023-04-23T00:08:30;12.43;;;8.70;;
64684;SDS011;51109;47.414;18.954;2023-04-23T00:10:57;15.32;;;8.98;;
64684;SDS011;51109;47.414;18.954;2023-04-23T00:13:23;18.98;;;9.15;;
64684;SDS011;51109;47.414;18.954;2023-04-23T00:15:50;14.00;;;8.68;;
64684;SDS011;51109;47.414;18.954;2023-04-23T00:18:16;12.57;;;8.50;;
64684;SDS011;51109;47.414;18.954;2023-04-23T00:20:42;12.43;;;8.52;;
64684;SDS011;51109;47.414;18.954;2023-04-23T00:23:08;12.02;;;9.23;;
64684;SDS011;51109;47.414;18.954;2023-04-23T00:25:34;15.73;;;9.57;;
64684;SDS011;51109;47.414;18.954;2023-04-23T00:28:00;13.13;;;9.43;;
64684;SDS011;51109;47.414;18.954;2023-04-23T00:30:26;18.50;;;8.93;;
64684;SDS011;51109;47.414;18.954;2023-04-23T00:32:52;16.05;;;9.02;;
64684;SDS011;51109;47.414;18.954;2023-04-23T00:35:18;13.40;;;8.88;;
64684;SDS011;51109;47.414;18.954;2023-04-23T00:37:44;13.35;;;9.85;;
64684;SDS011;51109;47.414;18.954;2023-04-23T00:40:11;17.23;;;10.15;;
64684;SDS011;51109;47.414;18.954;2023-04-23T00:42:38;18.95;;;9.52;;
64684;SDS011;51109;47.414;18.954;2023-04-23T00:45:05;14.68;;;9.38;;
64684;SDS011;51109;47.414;18.954;2023-04-23T00:47:33;14.45;;;9.48;;
64684;SDS011;51109;47.414;18.954;2023-04-23T00:50:00;15.15;;;8.65;;
64684;SDS011;51109;47.414;18.954;2023-04-23T00:52:26;11.73;;;8.75;;
64684;SDS011;51109;47.414;18.954;2023-04-23T00:54:53;14.25;;;9.15;;
64684;SDS011;51109;47.414;18.954;2023-04-23T00:57:20;18.52;;;9.60;;
64684;SDS011;51109;47.414;18.954;2023-04-23T00:59:47;12.23;;;8.05;;
64684;SDS011;51109;47.414;18.954;2023-04-23T01:02:13;10.02;;;8.70;;
64684;SDS011;51109;47.414;18.954;2023-04-23T01:04:41;14.13;;;9.25;;
64684;SDS011;51109;47.414;18.954;2023-04-23T01:07:08;12.32;;;8.60;;
64684;SDS011;51109;47.414;18.954;2023-04-23T01:09:36;13.25;;;8.30;;
64684;SDS011;51109;47.414;18.954;2023-04-23T01:12:02;15.30;;;8.68;;
64684;SDS011;51109;47.414;18.954;2023-04-23T01:14:30;17.25;;;9.25;;
64684;SDS011;51109;47.414;18.954;2023-04-23T01:16:57;15.43;;;9.57;;
64684;SDS011;51109;47.414;18.954;2023-04-23T01:19:23;16.48;;;9.18;;
64684;SDS011;51109;47.414;18.954;2023-04-23T01:21:49;15.23;;;9.43;;
64684;SDS011;51109;47.414;18.954;2023-04-23T01:24:15;16.08;;;10.50;;
64684;SDS011;51109;47.414;18.954;2023-04-23T01:26:41;18.08;;;11.43;;
64684;SDS011;51109;47.414;18.954;2023-04-23T01:29:07;17.33;;;9.80;;
64684;SDS011;51109;47.414;18.954;2023-04-23T01:31:34;16.05;;;10.10;;
64684;SDS011;51109;47.414;18.954;2023-04-23T01:34:01;16.58;;;10.05;;
64684;SDS011;51109;47.414;18.954;2023-04-23T01:36:27;15.05;;;10.07;;
64684;SDS011;51109;47.414;18.954;2023-04-23T01:38:55;18.98;;;10.18;;
64684;SDS011;51109;47.414;18.954;2023-04-23T01:41:21;18.23;;;9.90;;
64684;SDS011;51109;47.414;18.954;2023-04-23T01:43:47;14.32;;;10.18;;
64684;SDS011;51109;47.414;18.954;2023-04-23T01:46:13;13.43;;;9.77;;
64684;SDS011;51109;47.414;18.954;2023-04-23T01:48:40;14.73;;;11.43;;
64684;SDS011;51109;47.414;18.954;2023-04-23T01:51:06;20.17;;;11.43;;
64684;SDS011;51109;47.414;18.954;2023-04-23T01:53:33;18.63;;;10.02;;
64684;SDS011;51109;47.414;18.954;2023-04-23T01:55:59;11.88;;;9.13;;
64684;SDS011;51109;47.414;18.954;2023-04-23T01:58:26;16.83;;;10.40;;
64684;SDS011;51109;47.414;18.954;2023-04-23T02:00:51;12.10;;;9.18;;
64684;SDS011;51109;47.414;18.954;2023-04-23T02:03:17;15.05;;;9.45;;
64684;SDS011;51109;47.414;18.954;2023-04-23T02:05:43;18.23;;;10.82;;
64684;SDS011;51109;47.414;18.954;2023-04-23T02:08:10;15.77;;;10.80;;
64684;SDS011;51109;47.414;18.954;2023-04-23T02:10:36;17.50;;;11.07;;
64684;SDS011;51109;47.414;18.954;2023-04-23T02:13:02;16.30;;;10.40;;
64684;SDS011;51109;47.414;18.954;2023-04-23T02:15:28;16.65;;;10.20;;
64684;SDS011;51109;47.414;18.954;2023-04-23T02:17:54;15.38;;;11.20;;
64684;SDS011;51109;47.414;18.954;2023-04-23T02:20:20;17.08;;;11.10;;
64684;SDS011;51109;47.414;18.954;2023-04-23T02:22:47;17.05;;;10.23;;
64684;SDS011;51109;47.414;18.954;2023-04-23T02:25:13;18.10;;;11.15;;
64684;SDS011;51109;47.414;18.954;2023-04-23T02:27:41;16.42;;;10.85;;
64684;SDS011;51109;47.414;18.954;2023-04-23T02:30:07;15.73;;;10.48;;
64684;SDS011;51109;47.414;18.954;2023-04-23T02:32:34;14.48;;;9.27;;
64684;SDS011;51109;47.414;18.954;2023-04-23T02:35:01;16.50;;;10.52;;
64684;SDS011;51109;47.414;18.954;2023-04-23T02:37:27;14.30;;;10.20;;
64684;SDS011;51109;47.414;18.954;2023-04-23T02:39:53;19.42;;;10.57;;
64684;SDS011;51109;47.414;18.954;2023-04-23T02:42:19;22.90;;;10.80;;
64684;SDS011;51109;47.414;18.954;2023-04-23T02:44:45;15.95;;;10.93;;
64684;SDS011;51109;47.414;18.954;2023-04-23T02:47:11;18.67;;;11.38;;
64684;SDS011;51109;47.414;18.954;2023-04-23T02:49:37;20.83;;;10.82;;
64684;SDS011;51109;47.414;18.954;2023-04-23T02:52:03;15.93;;;11.20;;
64684;SDS011;51109;47.414;18.954;2023-04-23T02:54:29;19.92;;;10.98;;
64684;SDS011;51109;47.414;18.954;2023-04-23T02:56:56;18.23;;;11.60;;
64684;SDS011;51109;47.414;18.954;2023-04-23T02:59:23;18.60;;;11.70;;
64684;SDS011;51109;47.414;18.954;2023-04-23T03:04:23;17.70;;;10.68;;
64684;SDS011;51109;47.414;18.954;2023-04-23T03:06:49;17.65;;;11.63;;
64684;SDS011;51109;47.414;18.954;2023-04-23T03:09:15;17.05;;;11.30;;
64684;SDS011;51109;47.414;18.954;2023-04-23T03:11:41;15.02;;;10.90;;
64684;SDS011;51109;47.414;18.954;2023-04-23T03:14:07;16.13;;;11.43;;
64684;SDS011;51109;47.414;18.954;2023-04-23T03:16:33;16.90;;;11.90;;
64684;SDS011;51109;47.414;18.954;2023-04-23T03:18:59;23.63;;;12.48;;
64684;SDS011;51109;47.414;18.954;2023-04-23T03:21:25;21.88;;;12.75;;
64684;SDS011;51109;47.414;18.954;2023-04-23T03:23:51;21.38;;;12.35;;
64684;SDS011;51109;47.414;18.954;2023-04-23T03:26:17;22.70;;;12.73;;
64684;SDS011;51109;47.414;18.954;2023-04-23T03:28:43;19.98;;;12.02;;
64684;SDS011;51109;47.414;18.954;2023-04-23T03:31:09;20.00;;;11.98;;
64684;SDS011;51109;47.414;18.954;2023-04-23T03:33:35;19.23;;;12.52;;
64684;SDS011;51109;47.414;18.954;2023-04-23T03:36:01;28.27;;;12.65;;
64684;SDS011;51109;47.414;18.954;2023-04-23T03:38:27;19.27;;;12.18;;
64684;SDS011;51109;47.414;18.954;2023-04-23T03:40:53;21.83;;;12.55;;
64684;SDS011;51109;47.414;18.954;2023-04-23T03:43:19;19.45;;;11.93;;
64684;SDS011;51109;47.414;18.954;2023-04-23T03:45:45;21.95;;;13.32;;
64684;SDS011;51109;47.414;18.954;2023-04-23T03:48:11;22.60;;;12.90;;
64684;SDS011;51109;47.414;18.954;2023-04-23T03:50:37;22.30;;;13.57;;
64684;SDS011;51109;47.414;18.954;2023-04-23T03:53:05;19.35;;;12.88;;
64684;SDS011;51109;47.414;18.954;2023-04-23T03:55:32;21.17;;;14.23;;
64684;SDS011;51109;47.414;18.954;2023-04-23T03:57:58;23.17;;;12.98;;
64684;SDS011;51109;47.414;18.954;2023-04-23T04:00:26;25.55;;;15.07;;
64684;SDS011;51109;47.414;18.954;2023-04-23T04:02:52;22.92;;;14.95;;
64684;SDS011;51109;47.414;18.954;2023-04-23T04:05:18;24.15;;;14.70;;
64684;SDS011;51109;47.414;18.954;2023-04-23T04:07:44;22.35;;;14.02;;
64684;SDS011;51109;47.414;18.954;2023-04-23T04:10:10;26.67;;;14.70;;
64684;SDS011;51109;47.414;18.954;2023-04-23T04:12:36;23.30;;;14.40;;
64684;SDS011;51109;47.414;18.954;2023-04-23T04:15:02;20.90;;;13.98;;
64684;SDS011;51109;47.414;18.954;2023-04-23T04:17:29;22.55;;;14.40;;
64684;SDS011;51109;47.414;18.954;2023-04-23T04:19:57;20.08;;;14.00;;
64684;SDS011;51109;47.414;18.954;2023-04-23T04:22:23;26.75;;;15.18;;
64684;SDS011;51109;47.414;18.954;2023-04-23T04:24:49;17.38;;;13.35;;
64684;SDS011;51109;47.414;18.954;2023-04-23T04:27:17;20.00;;;14.07;;
64684;SDS011;51109;47.414;18.954;2023-04-23T04:29:43;20.40;;;13.38;;
64684;SDS011;51109;47.414;18.954;2023-04-23T04:32:09;24.15;;;12.35;;
64684;SDS011;51109;47.414;18.954;2023-04-23T04:34:35;23.98;;;14.25;;
64684;SDS011;51109;47.414;18.954;2023-04-23T04:37:02;22.38;;;13.00;;
64684;SDS011;51109;47.414;18.954;2023-04-23T04:39:29;22.90;;;12.93;;
64684;SDS011;51109;47.414;18.954;2023-04-23T04:41:55;20.73;;;13.45;;
64684;SDS011;51109;47.414;18.954;2023-04-23T04:44:21;22.65;;;13.13;;
64684;SDS011;51109;47.414;18.954;2023-04-23T04:46:47;19.55;;;12.20;;
64684;SDS011;51109;47.414;18.954;2023-04-23T04:49:13;23.70;;;12.60;;
64684;SDS011;51109;47.414;18.954;2023-04-23T04:51:40;17.05;;;12.18;;
64684;SDS011;51109;47.414;18.954;2023-04-23T04:54:06;15.38;;;11.80;;
64684;SDS011;51109;47.414;18.954;2023-04-23T04:56:33;17.50;;;12.05;;
64684;SDS011;51109;47.414;18.954;2023-04-23T04:58:59;16.42;;;11.77;;
64684;SDS011;51109;47.414;18.954;2023-04-23T05:01:26;16.33;;;10.63;;
64684;SDS011;51109;47.414;18.954;2023-04-23T05:03:56;15.95;;;11.10;;
64684;SDS011;51109;47.414;18.954;2023-04-23T05:06:23;15.90;;;10.40;;
64684;SDS011;51109;47.414;18.954;2023-04-23T05:08:50;16.27;;;10.57;;
64684;SDS011;51109;47.414;18.954;2023-04-23T05:11:16;15.32;;;10.68;;
64684;SDS011;51109;47.414;18.954;2023-04-23T05:13:43;13.00;;;10.25;;
64684;SDS011;51109;47.414;18.954;2023-04-23T05:16:10;16.98;;;10.88;;
64684;SDS011;51109;47.414;18.954;2023-04-23T05:18:37;18.00;;;10.75;;
64684;SDS011;51109;47.414;18.954;2023-04-23T05:21:03;12.45;;;10.15;;
64684;SDS011;51109;47.414;18.954;2023-04-23T05:23:30;13.02;;;10.35;;
64684;SDS011;51109;47.414;18.954;2023-04-23T05:25:57;14.80;;;9.82;;
64684;SDS011;51109;47.414;18.954;2023-04-23T05:28:23;13.13;;;9.25;;
64684;SDS011;51109;47.414;18.954;2023-04-23T05:30:50;12.65;;;9.30;;
64684;SDS011;51109;47.414;18.954;2023-04-23T05:33:16;17.75;;;10.00;;
64684;SDS011;51109;47.414;18.954;2023-04-23T05:35:50;15.20;;;10.25;;
64684;SDS011;51109;47.414;18.954;2023-04-23T05:38:17;15.60;;;10.02;;
64684;SDS011;51109;47.414;18.954;2023-04-23T05:40:43;14.85;;;9.68;;
64684;SDS011;51109;47.414;18.954;2023-04-23T05:43:09;19.25;;;9.95;;
64684;SDS011;51109;47.414;18.954;2023-04-23T05:45:35;13.90;;;9.27;;
64684;SDS011;51109;47.414;18.954;2023-04-23T05:48:01;14.70;;;10.00;;
64684;SDS011;51109;47.414;18.954;2023-04-23T05:50:27;11.65;;;8.48;;
64684;SDS011;51109;47.414;18.954;2023-04-23T05:52:53;15.10;;;9.00;;
64684;SDS011;51109;47.414;18.954;2023-04-23T05:55:20;11.80;;;8.15;;
64684;SDS011;51109;47.414;18.954;2023-04-23T05:57:48;12.98;;;8.75;;
64684;SDS011;51109;47.414;18.954;2023-04-23T06:00:14;9.63;;;8.25;;
64684;SDS011;51109;47.414;18.954;2023-04-23T06:02:41;11.77;;;7.57;;
64684;SDS011;51109;47.414;18.954;2023-04-23T06:05:07;16.92;;;8.05;;
64684;SDS011;51109;47.414;18.954;2023-04-23T06:07:33;17.13;;;8.55;;
64684;SDS011;51109;47.414;18.954;2023-04-23T06:10:00;14.75;;;7.88;;
64684;SDS011;51109;47.414;18.954;2023-04-23T06:12:27;17.45;;;9.90;;
64684;SDS011;51109;47.414;18.954;2023-04-23T06:14:52;11.60;;;7.72;;
64684;SDS011;51109;47.414;18.954;2023-04-23T06:17:19;10.45;;;8.48;;
64684;SDS011;51109;47.414;18.954;2023-04-23T06:19:45;10.65;;;7.63;;
64684;SDS011;51109;47.414;18.954;2023-04-23T06:22:11;12.10;;;7.97;;
64684;SDS011;51109;47.414;18.954;2023-04-23T06:24:36;13.35;;;8.35;;
64684;SDS011;51109;47.414;18.954;2023-04-23T06:27:03;11.07;;;7.90;;
64684;SDS011;51109;47.414;18.954;2023-04-23T06:29:28;12.65;;;8.50;;
64684;SDS011;51109;47.414;18.954;2023-04-23T06:31:55;11.70;;;8.05;;
64684;SDS011;51109;47.414;18.954;2023-04-23T06:34:21;12.82;;;7.93;;
64684;SDS011;51109;47.414;18.954;2023-04-23T06:36:49;9.82;;;7.53;;
64684;SDS011;51109;47.414;18.954;2023-04-23T06:39:15;13.07;;;8.43;;
64684;SDS011;51109;47.414;18.954;2023-04-23T06:41:41;16.52;;;8.07;;
64684;SDS011;51109;47.414;18.954;2023-04-23T06:44:07;12.30;;;8.70;;
64684;SDS011;51109;47.414;18.954;2023-04-23T06:46:33;16.55;;;8.18;;
64684;SDS011;51109;47.414;18.954;2023-04-23T06:49:00;10.50;;;7.30;;
64684;SDS011;51109;47.414;18.954;2023-04-23T06:51:26;10.95;;;7.22;;
64684;SDS011;51109;47.414;18.954;2023-04-23T06:53:52;11.13;;;8.20;;
64684;SDS011;51109;47.414;18.954;2023-04-23T06:56:18;14.98;;;8.85;;
64684;SDS011;51109;47.414;18.954;2023-04-23T06:58:45;16.40;;;9.05;;
64684;SDS011;51109;47.414;18.954;2023-04-23T07:01:11;14.80;;;7.82;;
64684;SDS011;51109;47.414;18.954;2023-04-23T07:03:38;13.18;;;8.00;;
64684;SDS011;51109;47.414;18.954;2023-04-23T07:06:04;12.75;;;8.63;;
64684;SDS011;51109;47.414;18.954;2023-04-23T07:08:30;16.00;;;8.10;;
64684;SDS011;51109;47.414;18.954;2023-04-23T07:10:56;14.00;;;8.60;;
64684;SDS011;51109;47.414;18.954;2023-04-23T07:13:22;10.75;;;7.28;;
64684;SDS011;51109;47.414;18.954;2023-04-23T07:15:49;10.00;;;7.93;;
64684;SDS011;51109;47.414;18.954;2023-04-23T07:18:15;11.75;;;7.53;;
64684;SDS011;51109;47.414;18.954;2023-04-23T07:20:41;12.88;;;7.93;;
64684;SDS011;51109;47.414;18.954;2023-04-23T07:23:07;12.20;;;7.35;;
64684;SDS011;51109;47.414;18.954;2023-04-23T07:25:33;14.77;;;7.47;;
64684;SDS011;51109;47.414;18.954;2023-04-23T07:27:59;10.63;;;7.22;;
64684;SDS011;51109;47.414;18.954;2023-04-23T07:30:26;13.63;;;8.75;;
64684;SDS011;51109;47.414;18.954;2023-04-23T07:32:52;14.02;;;9.95;;
64684;SDS011;51109;47.414;18.954;2023-04-23T07:35:18;12.65;;;8.10;;
64684;SDS011;51109;47.414;18.954;2023-04-23T07:37:45;13.25;;;8.10;;
64684;SDS011;51109;47.414;18.954;2023-04-23T07:40:11;11.07;;;6.95;;
64684;SDS011;51109;47.414;18.954;2023-04-23T07:42:36;10.80;;;6.82;;
64684;SDS011;51109;47.414;18.954;2023-04-23T07:45:03;15.30;;;6.55;;
64684;SDS011;51109;47.414;18.954;2023-04-23T07:47:30;11.40;;;7.32;;
64684;SDS011;51109;47.414;18.954;2023-04-23T07:49:56;9.05;;;7.03;;
64684;SDS011;51109;47.414;18.954;2023-04-23T07:52:22;14.52;;;7.90;;
64684;SDS011;51109;47.414;18.954;2023-04-23T07:54:48;10.05;;;7.15;;
64684;SDS011;51109;47.414;18.954;2023-04-23T07:57:14;11.23;;;8.00;;
64684;SDS011;51109;47.414;18.954;2023-04-23T07:59:40;9.90;;;7.97;;
64684;SDS011;51109;47.414;18.954;2023-04-23T08:02:07;13.15;;;8.18;;
64684;SDS011;51109;47.414;18.954;2023-04-23T08:04:33;14.68;;;8.57;;
64684;SDS011;51109;47.414;18.954;2023-04-23T08:06:58;16.30;;;9.00;;
64684;SDS011;51109;47.414;18.954;2023-04-23T08:09:24;17.83;;;9.88;;
64684;SDS011;51109;47.414;18.954;2023-04-23T08:11:51;16.20;;;9.75;;
64684;SDS011;51109;47.414;18.954;2023-04-23T08:14:17;13.68;;;8.25;;
64684;SDS011;51109;47.414;18.954;2023-04-23T08:16:43;13.73;;;8.23;;
64684;SDS011;51109;47.414;18.954;2023-04-23T08:19:09;16.65;;;8.05;;
64684;SDS011;51109;47.414;18.954;2023-04-23T08:21:36;14.43;;;8.90;;
64684;SDS011;51109;47.414;18.954;2023-04-23T08:24:02;12.02;;;8.10;;
64684;SDS011;51109;47.414;18.954;2023-04-23T08:26:28;9.55;;;7.72;;
64684;SDS011;51109;47.414;18.954;2023-04-23T08:28:55;10.07;;;7.03;;
64684;SDS011;51109;47.414;18.954;2023-04-23T08:31:21;9.20;;;7.22;;
64684;SDS011;51109;47.414;18.954;2023-04-23T08:33:47;10.00;;;7.35;;
64684;SDS011;51109;47.414;18.954;2023-04-23T08:36:13;16.33;;;6.82;;
64684;SDS011;51109;47.414;18.954;2023-04-23T08:38:39;16.23;;;6.90;;
64684;SDS011;51109;47.414;18.954;2023-04-23T08:41:06;12.75;;;6.40;;
64684;SDS011;51109;47.414;18.954;2023-04-23T08:43:40;9.38;;;6.03;;
64684;SDS011;51109;47.414;18.954;2023-04-23T08:46:08;7.55;;;6.63;;
64684;SDS011;51109;47.414;18.954;2023-04-23T08:48:38;13.77;;;6.75;;
64684;SDS011;51109;47.414;18.954;2023-04-23T08:51:05;10.13;;;6.93;;
64684;SDS011;51109;47.414;18.954;2023-04-23T08:53:34;11.35;;;6.78;;
64684;SDS011;51109;47.414;18.954;2023-04-23T08:56:01;11.10;;;6.40;;
64684;SDS011;51109;47.414;18.954;2023-04-23T08:58:27;8.50;;;5.55;;
64684;SDS011;51109;47.414;18.954;2023-04-23T09:00:55;6.93;;;5.25;;
64684;SDS011;51109;47.414;18.954;2023-04-23T09:03:22;10.75;;;6.28;;
64684;SDS011;51109;47.414;18.954;2023-04-23T09:05:50;6.25;;;4.82;;
64684;SDS011;51109;47.414;18.954;2023-04-23T09:08:19;5.32;;;4.45;;
64684;SDS011;51109;47.414;18.954;2023-04-23T09:10:45;10.20;;;4.63;;
64684;SDS011;51109;47.414;18.954;2023-04-23T09:13:12;5.65;;;4.55;;
64684;SDS011;51109;47.414;18.954;2023-04-23T09:15:39;5.53;;;4.90;;
64684;SDS011;51109;47.414;18.954;2023-04-23T09:18:08;7.50;;;4.65;;
64684;SDS011;51109;47.414;18.954;2023-04-23T09:20:35;7.32;;;5.07;;
64684;SDS011;51109;47.414;18.954;2023-04-23T09:23:07;5.65;;;4.80;;
64684;SDS011;51109;47.414;18.954;2023-04-23T09:25:33;7.90;;;5.35;;
64684;SDS011;51109;47.414;18.954;2023-04-23T09:27:59;5.45;;;4.50;;
64684;SDS011;51109;47.414;18.954;2023-04-23T09:30:26;6.00;;;5.35;;
64684;SDS011;51109;47.414;18.954;2023-04-23T09:32:51;6.32;;;4.38;;
64684;SDS011;51109;47.414;18.954;2023-04-23T09:35:18;5.70;;;4.63;;
64684;SDS011;51109;47.414;18.954;2023-04-23T09:37:45;7.38;;;5.20;;
64684;SDS011;51109;47.414;18.954;2023-04-23T09:40:21;9.27;;;4.68;;
64684;SDS011;51109;47.414;18.954;2023-04-23T09:42:49;9.00;;;4.85;;
64684;SDS011;51109;47.414;18.954;2023-04-23T09:45:18;7.70;;;4.30;;
64684;SDS011;51109;47.414;18.954;2023-04-23T09:47:52;7.85;;;4.50;;
64684;SDS011;51109;47.414;18.954;2023-04-23T09:50:19;6.28;;;4.38;;
64684;SDS011;51109;47.414;18.954;2023-04-23T09:53:01;6.90;;;4.63;;
64684;SDS011;51109;47.414;18.954;2023-04-23T09:55:31;6.35;;;4.60;;
64684;SDS011;51109;47.414;18.954;2023-04-23T09:58:10;7.78;;;4.18;;
64684;SDS011;51109;47.414;18.954;2023-04-23T10:00:39;6.55;;;4.38;;
64684;SDS011;51109;47.414;18.954;2023-04-23T10:03:06;5.80;;;3.92;;
64684;SDS011;51109;47.414;18.954;2023-04-23T10:05:40;4.45;;;3.83;;
64684;SDS011;51109;47.414;18.954;2023-04-23T10:08:07;8.50;;;4.07;;
64684;SDS011;51109;47.414;18.954;2023-04-23T10:10:34;7.75;;;4.40;;
64684;SDS011;51109;47.414;18.954;2023-04-23T10:13:00;6.15;;;4.10;;
64684;SDS011;51109;47.414;18.954;2023-04-23T10:15:26;4.97;;;4.43;;
64684;SDS011;51109;47.414;18.954;2023-04-23T10:17:53;5.20;;;4.45;;
64684;SDS011;51109;47.414;18.954;2023-04-23T10:20:20;5.95;;;4.03;;
64684;SDS011;51109;47.414;18.954;2023-04-23T10:22:47;4.80;;;3.90;;
64684;SDS011;51109;47.414;18.954;2023-04-23T10:25:13;9.80;;;4.65;;
64684;SDS011;51109;47.414;18.954;2023-04-23T10:27:43;6.75;;;4.50;;
64684;SDS011;51109;47.414;18.954;2023-04-23T10:30:11;3.75;;;3.42;;
64684;SDS011;51109;47.414;18.954;2023-04-23T10:32:39;6.53;;;3.88;;
64684;SDS011;51109;47.414;18.954;2023-04-23T10:35:05;4.07;;;3.28;;
64684;SDS011;51109;47.414;18.954;2023-04-23T10:37:33;6.82;;;4.15;;
64684;SDS011;51109;47.414;18.954;2023-04-23T10:40:04;4.95;;;3.85;;
64684;SDS011;51109;47.414;18.954;2023-04-23T10:42:37;8.15;;;3.53;;
64684;SDS011;51109;47.414;18.954;2023-04-23T10:45:17;6.90;;;4.15;;
64684;SDS011;51109;47.414;18.954;2023-04-23T10:47:45;5.28;;;3.55;;
64684;SDS011;51109;47.414;18.954;2023-04-23T10:52:51;4.30;;;3.60;;
64684;SDS011;51109;47.414;18.954;2023-04-23T10:55:19;8.32;;;3.08;;
64684;SDS011;51109;47.414;18.954;2023-04-23T10:58:02;4.60;;;3.20;;
64684;SDS011;51109;47.414;18.954;2023-04-23T11:06:05;5.25;;;3.05;;
64684;SDS011;51109;47.414;18.954;2023-04-23T11:08:35;5.40;;;2.95;;
64684;SDS011;51109;47.414;18.954;2023-04-23T11:11:02;4.07;;;3.67;;
64684;SDS011;51109;47.414;18.954;2023-04-23T11:13:32;7.22;;;4.10;;
64684;SDS011;51109;47.414;18.954;2023-04-23T11:16:13;3.63;;;3.33;;
64684;SDS011;51109;47.414;18.954;2023-04-23T11:18:53;4.28;;;3.25;;
64684;SDS011;51109;47.414;18.954;2023-04-23T11:21:54;3.33;;;3.03;;
64684;SDS011;51109;47.414;18.954;2023-04-23T11:26:54;4.75;;;3.17;;
64684;SDS011;51109;47.414;18.954;2023-04-23T11:29:21;7.95;;;3.50;;
64684;SDS011;51109;47.414;18.954;2023-04-23T11:31:51;9.20;;;3.35;;
64684;SDS011;51109;47.414;18.954;2023-04-23T11:34:18;8.60;;;3.47;;
64684;SDS011;51109;47.414;18.954;2023-04-23T11:36:45;3.28;;;2.97;;
64684;SDS011;51109;47.414;18.954;2023-04-23T11:39:16;3.42;;;2.88;;
64684;SDS011;51109;47.414;18.954;2023-04-23T11:41:43;3.33;;;3.03;;
64684;SDS011;51109;47.414;18.954;2023-04-23T11:44:11;4.47;;;3.22;;
64684;SDS011;51109;47.414;18.954;2023-04-23T11:46:37;7.50;;;3.63;;
64684;SDS011;51109;47.414;18.954;2023-04-23T11:49:04;3.97;;;3.30;;
64684;SDS011;51109;47.414;18.954;2023-04-23T11:51:30;4.10;;;3.30;;
64684;SDS011;51109;47.414;18.954;2023-04-23T11:54:02;4.97;;;3.15;;
64684;SDS011;51109;47.414;18.954;2023-04-23T11:56:30;8.88;;;3.75;;
64684;SDS011;51109;47.414;18.954;2023-04-23T11:59:00;4.03;;;3.58;;
64684;SDS011;51109;47.414;18.954;2023-04-23T12:04:18;4.00;;;3.60;;
64684;SDS011;51109;47.414;18.954;2023-04-23T12:06:46;3.70;;;3.38;;
64684;SDS011;51109;47.414;18.954;2023-04-23T12:09:13;6.60;;;4.13;;
64684;SDS011;51109;47.414;18.954;2023-04-23T12:11:41;5.05;;;3.78;;
64684;SDS011;51109;47.414;18.954;2023-04-23T12:14:09;8.48;;;3.53;;
64684;SDS011;51109;47.414;18.954;2023-04-23T12:16:37;6.47;;;3.33;;
64684;SDS011;51109;47.414;18.954;2023-04-23T12:19:03;5.15;;;3.30;;
64684;SDS011;51109;47.414;18.954;2023-04-23T12:21:31;5.13;;;3.30;;
64684;SDS011;51109;47.414;18.954;2023-04-23T12:23:58;5.80;;;3.63;;
64684;SDS011;51109;47.414;18.954;2023-04-23T12:26:27;4.38;;;3.05;;
64684;SDS011;51109;47.414;18.954;2023-04-23T12:28:54;4.32;;;3.28;;
64684;SDS011;51109;47.414;18.954;2023-04-23T12:31:25;4.43;;;3.28;;
64684;SDS011;51109;47.414;18.954;2023-04-23T12:33:55;4.57;;;3.38;;
64684;SDS011;51109;47.414;18.954;2023-04-23T12:36:28;4.32;;;3.72;;
64684;SDS011;51109;47.414;18.954;2023-04-23T12:41:43;6.18;;;4.40;;
64684;SDS011;51109;47.414;18.954;2023-04-23T12:44:09;5.68;;;4.18;;
64684;SDS011;51109;47.414;18.954;2023-04-23T12:46:35;5.07;;;3.03;;
64684;SDS011;51109;47.414;18.954;2023-04-23T12:49:01;5.97;;;3.30;;
64684;SDS011;51109;47.414;18.954;2023-04-23T12:51:27;4.40;;;3.20;;
64684;SDS011;51109;47.414;18.954;2023-04-23T12:53:53;4.65;;;3.30;;
64684;SDS011;51109;47.414;18.954;2023-04-23T12:56:19;5.10;;;3.58;;
64684;SDS011;51109;47.414;18.954;2023-04-23T12:58:45;6.28;;;3.53;;
64684;SDS011;51109;47.414;18.954;2023-04-23T13:01:11;4.75;;;3.17;;
64684;SDS011;51109;47.414;18.954;2023-04-23T13:03:38;7.85;;;3.28;;
64684;SDS011;51109;47.414;18.954;2023-04-23T13:06:05;3.83;;;3.42;;
64684;SDS011;51109;47.414;18.954;2023-04-23T13:08:34;29.88;;;3.75;;
64684;SDS011;51109;47.414;18.954;2023-04-23T13:11:00;5.90;;;3.40;;
64684;SDS011;51109;47.414;18.954;2023-04-23T13:13:26;9.60;;;4.60;;
64684;SDS011;51109;47.414;18.954;2023-04-23T13:15:52;4.32;;;3.50;;
64684;SDS011;51109;47.414;18.954;2023-04-23T13:18:18;6.20;;;3.78;;
64684;SDS011;51109;47.414;18.954;2023-04-23T13:20:44;11.00;;;3.80;;
64684;SDS011;51109;47.414;18.954;2023-04-23T13:23:10;9.63;;;3.40;;
64684;SDS011;51109;47.414;18.954;2023-04-23T13:25:37;4.20;;;3.80;;
64684;SDS011;51109;47.414;18.954;2023-04-23T13:28:03;4.50;;;3.45;;
64684;SDS011;51109;47.414;18.954;2023-04-23T13:30:29;19.05;;;6.53;;
64684;SDS011;51109;47.414;18.954;2023-04-23T13:32:55;8.23;;;3.67;;
64684;SDS011;51109;47.414;18.954;2023-04-23T13:35:22;4.10;;;3.58;;
64684;SDS011;51109;47.414;18.954;2023-04-23T13:37:48;5.32;;;3.33;;
64684;SDS011;51109;47.414;18.954;2023-04-23T13:40:14;4.70;;;3.17;;
64684;SDS011;51109;47.414;18.954;2023-04-23T13:42:40;5.97;;;3.22;;
64684;SDS011;51109;47.414;18.954;2023-04-23T13:45:06;3.83;;;3.42;;
64684;SDS011;51109;47.414;18.954;2023-04-23T13:47:33;7.28;;;3.30;;
64684;SDS011;51109;47.414;18.954;2023-04-23T13:50:00;6.45;;;3.38;;
64684;SDS011;51109;47.414;18.954;2023-04-23T13:52:29;4.07;;;3.10;;
64684;SDS011;51109;47.414;18.954;2023-04-23T13:54:56;4.30;;;3.65;;
64684;SDS011;51109;47.414;18.954;2023-04-23T13:57:23;4.78;;;3.75;;
64684;SDS011;51109;47.414;18.954;2023-04-23T13:59:49;3.58;;;3.28;;
64684;SDS011;51109;47.414;18.954;2023-04-23T14:02:15;4.50;;;3.33;;
64684;SDS011;51109;47.414;18.954;2023-04-23T14:04:41;4.10;;;3.42;;
64684;SDS011;51109;47.414;18.954;2023-04-23T14:07:07;7.35;;;3.30;;
64684;SDS011;51109;47.414;18.954;2023-04-23T14:09:33;5.47;;;3.10;;
64684;SDS011;51109;47.414;18.954;2023-04-23T14:11:59;9.35;;;3.85;;
64684;SDS011;51109;47.414;18.954;2023-04-23T14:14:27;4.18;;;3.33;;
64684;SDS011;51109;47.414;18.954;2023-04-23T14:16:53;5.82;;;3.50;;
64684;SDS011;51109;47.414;18.954;2023-04-23T14:19:19;5.13;;;3.88;;
64684;SDS011;51109;47.414;18.954;2023-04-23T14:21:45;5.82;;;3.00;;
64684;SDS011;51109;47.414;18.954;2023-04-23T14:24:16;5.30;;;3.40;;
64684;SDS011;51109;47.414;18.954;2023-04-23T14:26:46;6.55;;;3.53;;
64684;SDS011;51109;47.414;18.954;2023-04-23T14:31:56;3.65;;;3.35;;
64684;SDS011;51109;47.414;18.954;2023-04-23T14:34:22;5.97;;;3.47;;
64684;SDS011;51109;47.414;18.954;2023-04-23T14:36:48;3.42;;;2.97;;
64684;SDS011;51109;47.414;18.954;2023-04-23T14:39:16;6.32;;;3.50;;
64684;SDS011;51109;47.414;18.954;2023-04-23T14:41:43;6.35;;;3.33;;
64684;SDS011;51109;47.414;18.954;2023-04-23T14:44:09;3.65;;;3.28;;